Time;durP1;ratioP1;P1;durP2;ratioP2;P2;SDS_P1;SDS_P2;PMS_P1;PMS_P2;Temp;Humidity;BMP_temperature;BMP_pressure;BME280_temperature;BME280_humidity;BME280_pressure;Samples;Min_cycle;Max_cycle;Signal;HPM_P1;HPM_P2
2023/03/11 00:02:26;;;;;;;4.13;1.63;;;;;;;;;;5119246;28;20052;-81
2023/03/11 00:04:52;;;;;;;8.35;1.88;;;;;;;;;;5107462;28;20111;-80
2023/03/11 00:07:19;;;;;;;8.27;1.50;;;;;;;;;;5112241;27;20135;-79
2023/03/11 00:09:45;;;;;;;7.35;1.85;;;;;;;;;;5119300;28;20079;-80
2023/03/11 00:12:12;;;;;;;8.20;2.75;;;;;;;;;;5106964;28;20063;-79
2023/03/11 00:14:38;;;;;;;10.82;1.95;;;;;;;;;;5106529;27;20053;-79
2023/03/11 00:17:04;;;;;;;8.48;2.00;;;;;;;;;;5108574;28;20083;-79
2023/03/11 00:19:31;;;;;;;4.72;3.05;;;;;;;;;;5105962;28;20084;-79
2023/03/11 00:21:57;;;;;;;5.82;1.83;;;;;;;;;;5112715;28;20057;-79
2023/03/11 00:24:24;;;;;;;5.43;2.25;;;;;;;;;;5107123;28;20111;-79
2023/03/11 00:26:50;;;;;;;4.85;1.90;;;;;;;;;;5113038;28;20538;-81
2023/03/11 00:29:16;;;;;;;10.98;2.88;;;;;;;;;;5115924;28;20110;-81
2023/03/11 00:31:43;;;;;;;9.68;2.40;;;;;;;;;;5118692;28;20044;-78
2023/03/11 00:34:09;;;;;;;8.40;2.33;;;;;;;;;;5113616;27;20083;-80
2023/03/11 00:36:35;;;;;;;4.53;1.63;;;;;;;;;;5111451;28;20032;-80
2023/03/11 00:39:05;;;;;;;5.00;1.75;;;;;;;;;;5113371;28;20079;-79
2023/03/11 00:41:32;;;;;;;8.73;2.20;;;;;;;;;;5113186;27;20059;-80
2023/03/11 00:43:59;;;;;;;5.07;1.83;;;;;;;;;;5112545;27;20186;-81
2023/03/11 00:46:25;;;;;;;8.20;1.40;;;;;;;;;;5105849;28;20048;-80
2023/03/11 00:48:52;;;;;;;15.00;2.90;;;;;;;;;;5111926;27;20049;-81
2023/03/11 00:51:18;;;;;;;9.98;2.25;;;;;;;;;;5116740;28;20059;-80
2023/03/11 00:53:45;;;;;;;5.63;2.67;;;;;;;;;;5105567;28;20587;-80
2023/03/11 00:56:12;;;;;;;8.98;1.55;;;;;;;;;;5110077;28;20528;-80
2023/03/11 00:58:40;;;;;;;8.32;2.15;;;;;;;;;;5113463;27;20071;-80
2023/03/11 01:01:08;;;;;;;10.05;1.75;;;;;;;;;;5112792;27;20057;-81
2023/03/11 01:03:35;;;;;;;9.70;2.15;;;;;;;;;;5114343;27;20044;-80
2023/03/11 01:06:01;;;;;;;8.52;2.10;;;;;;;;;;5133126;27;20056;-80
2023/03/11 01:08:30;;;;;;;2.92;1.33;;;;;;;;;;5119454;28;20482;-80
2023/03/11 01:10:57;;;;;;;4.38;2.08;;;;;;;;;;5114922;27;20117;-79
2023/03/11 01:13:24;;;;;;;13.80;2.20;;;;;;;;;;5109613;28;20119;-80
2023/03/11 01:15:50;;;;;;;2.20;1.48;;;;;;;;;;5110114;28;20505;-79
2023/03/11 01:18:17;;;;;;;6.05;1.55;;;;;;;;;;5114435;28;20048;-79
2023/03/11 01:20:43;;;;;;;8.40;1.40;;;;;;;;;;5113715;28;20044;-79
2023/03/11 01:23:10;;;;;;;10.88;1.95;;;;;;;;;;5114541;28;20055;-79
2023/03/11 01:25:36;;;;;;;4.70;1.85;;;;;;;;;;5115249;28;20040;-79
2023/03/11 01:28:04;;;;;;;17.98;1.70;;;;;;;;;;5108843;27;20902;-78
2023/03/11 01:30:30;;;;;;;5.68;2.17;;;;;;;;;;5108021;28;20079;-78
2023/03/11 01:32:57;;;;;;;5.65;1.90;;;;;;;;;;5114280;28;20056;-79
2023/03/11 01:35:25;;;;;;;6.38;1.65;;;;;;;;;;5101901;28;20049;-79
2023/03/11 01:37:52;;;;;;;5.60;1.80;;;;;;;;;;5113407;27;20508;-79
2023/03/11 01:40:22;;;;;;;2.08;1.52;;;;;;;;;;5113631;28;20048;-79
2023/03/11 01:42:48;;;;;;;4.88;1.52;;;;;;;;;;5103042;27;20055;-79
2023/03/11 01:45:33;;;;;;;9.10;2.10;;;;;;;;;;5120480;28;21063;-79
2023/03/11 01:48:00;;;;;;;4.50;2.03;;;;;;;;;;5112930;28;20614;-80
2023/03/11 01:50:29;;;;;;;7.82;1.60;;;;;;;;;;5113151;28;20044;-80
2023/03/11 01:52:56;;;;;;;2.95;1.60;;;;;;;;;;5105696;28;20070;-81
2023/03/11 01:55:22;;;;;;;7.55;2.05;;;;;;;;;;5106406;28;20060;-80
2023/03/11 01:57:50;;;;;;;9.48;1.52;;;;;;;;;;5116998;27;20059;-80
2023/03/11 02:00:17;;;;;;;7.20;1.90;;;;;;;;;;5118486;28;20077;-80
2023/03/11 02:02:53;;;;;;;14.52;2.20;;;;;;;;;;5113327;28;20600;-82
2023/03/11 02:05:21;;;;;;;3.78;1.90;;;;;;;;;;5114915;28;20500;-81
2023/03/11 02:07:49;;;;;;;5.43;1.83;;;;;;;;;;5110316;27;20045;-82
2023/03/11 02:10:18;;;;;;;4.50;1.58;;;;;;;;;;5119269;28;20063;-81
2023/03/11 02:12:45;;;;;;;6.95;2.05;;;;;;;;;;5113593;28;20567;-81
2023/03/11 02:15:20;;;;;;;10.98;1.85;;;;;;;;;;5118964;27;20048;-81
2023/03/11 02:17:47;;;;;;;6.72;1.50;;;;;;;;;;5110217;27;20048;-80
2023/03/11 02:20:21;;;;;;;4.22;1.52;;;;;;;;;;5126180;28;20253;-80
2023/03/11 02:22:48;;;;;;;9.35;1.92;;;;;;;;;;5120779;28;20052;-82
2023/03/11 02:25:42;;;;;;;7.25;1.92;;;;;;;;;;5113533;28;20051;-82
2023/03/11 02:28:09;;;;;;;;;;;;;;;;;;5101646;28;20052;-80
2023/03/11 02:30:37;;;;;;;5.00;1.52;;;;;;;;;;5120751;27;20431;-82
2023/03/11 02:33:04;;;;;;;1.30;1.20;;;;;;;;;;5119133;27;20123;-82
2023/03/11 02:35:31;;;;;;;7.63;1.70;;;;;;;;;;5111243;28;20036;-82
2023/03/11 02:37:58;;;;;;;7.90;1.60;;;;;;;;;;5114130;28;20131;-82
2023/03/11 02:40:29;;;;;;;5.72;1.77;;;;;;;;;;5113257;28;20060;-81
2023/03/11 02:42:58;;;;;;;11.10;1.88;;;;;;;;;;5102914;28;20080;-82
2023/03/11 02:45:25;;;;;;;4.63;1.73;;;;;;;;;;5099294;28;20053;-80
2023/03/11 02:47:53;;;;;;;8.60;1.98;;;;;;;;;;5106853;28;20052;-81
2023/03/11 02:50:20;;;;;;;5.85;2.22;;;;;;;;;;5108067;27;20044;-80
2023/03/11 02:52:48;;;;;;;6.35;2.17;;;;;;;;;;5120388;27;20044;-81
2023/03/11 02:55:16;;;;;;;5.15;1.40;;;;;;;;;;5112156;28;20044;-83
2023/03/11 02:57:44;;;;;;;8.40;1.77;;;;;;;;;;5108475;27;20079;-82
2023/03/11 03:00:15;;;;;;;7.25;1.20;;;;;;;;;;5100536;28;20069;-82
2023/03/11 03:02:51;;;;;;;8.15;1.60;;;;;;;;;;5107145;27;20613;-80
2023/03/11 03:05:19;;;;;;;5.78;1.45;;;;;;;;;;5113060;27;20080;-81
2023/03/11 03:07:47;;;;;;;9.57;2.25;;;;;;;;;;5118091;28;20131;-81
2023/03/11 03:10:14;;;;;;;10.63;1.80;;;;;;;;;;5107874;28;20044;-81
2023/03/11 03:12:41;;;;;;;6.45;1.70;;;;;;;;;;5107800;28;20052;-81
2023/03/11 03:15:09;;;;;;;10.88;1.92;;;;;;;;;;5106266;28;20139;-80
2023/03/11 03:17:35;;;;;;;5.20;1.67;;;;;;;;;;5106947;28;20074;-81
2023/03/11 03:20:10;;;;;;;4.15;2.00;;;;;;;;;;5117255;28;20535;-80
2023/03/11 03:22:39;;;;;;;5.07;1.83;;;;;;;;;;5101322;28;20059;-78
2023/03/11 03:25:07;;;;;;;10.32;1.80;;;;;;;;;;5136349;27;20074;-79
2023/03/11 03:27:34;;;;;;;7.55;1.85;;;;;;;;;;5110218;28;20048;-79
2023/03/11 03:30:02;;;;;;;3.42;1.40;;;;;;;;;;5111820;28;20052;-78
2023/03/11 03:32:29;;;;;;;5.22;1.50;;;;;;;;;;5109792;28;20496;-78
2023/03/11 03:34:57;;;;;;;7.65;1.55;;;;;;;;;;5110223;28;20120;-78
2023/03/11 03:37:35;;;;;;;11.27;2.55;;;;;;;;;;5105814;28;20056;-79
2023/03/11 03:40:06;;;;;;;6.55;1.80;;;;;;;;;;5111720;28;20147;-79
2023/03/11 03:42:34;;;;;;;3.58;2.28;;;;;;;;;;5101600;28;20052;-79
2023/03/11 03:45:02;;;;;;;6.80;1.70;;;;;;;;;;5110294;28;20135;-79
2023/03/11 03:47:28;;;;;;;7.95;1.73;;;;;;;;;;5108398;28;20126;-80
2023/03/11 03:49:55;;;;;;;4.82;1.40;;;;;;;;;;5104505;28;20044;-78
2023/03/11 03:52:21;;;;;;;3.78;1.58;;;;;;;;;;5116594;28;20605;-79
2023/03/11 03:54:48;;;;;;;5.55;1.60;;;;;;;;;;5099263;28;20049;-79
2023/03/11 03:57:14;;;;;;;8.43;1.60;;;;;;;;;;5098282;28;20048;-79
2023/03/11 03:59:44;;;;;;;7.70;1.45;;;;;;;;;;5099332;28;20078;-79
2023/03/11 04:02:11;;;;;;;11.23;2.17;;;;;;;;;;5098976;28;20053;-79
2023/03/11 04:04:38;;;;;;;4.95;1.45;;;;;;;;;;5098653;28;20131;-79
2023/03/11 04:07:05;;;;;;;6.63;1.58;;;;;;;;;;5098805;28;20080;-79
2023/03/11 04:09:33;;;;;;;7.00;2.28;;;;;;;;;;5098467;28;20586;-78
2023/03/11 04:12:00;;;;;;;4.18;1.45;;;;;;;;;;5098893;28;20509;-78
2023/03/11 04:14:30;;;;;;;14.30;2.00;;;;;;;;;;5133287;27;20048;-79
2023/03/11 04:16:59;;;;;;;4.25;1.30;;;;;;;;;;5098237;28;20111;-78
2023/03/11 04:19:26;;;;;;;2.53;1.63;;;;;;;;;;5099057;28;20521;-79
2023/03/11 04:21:53;;;;;;;3.85;2.13;;;;;;;;;;5100413;28;20049;-77
2023/03/11 04:24:21;;;;;;;6.28;1.75;;;;;;;;;;5098670;28;20053;-80
2023/03/11 04:26:48;;;;;;;4.40;1.60;;;;;;;;;;5098813;28;20054;-78
2023/03/11 04:29:16;;;;;;;1.80;1.45;;;;;;;;;;5107138;27;20520;-78
2023/03/11 04:31:47;;;;;;;4.65;1.40;;;;;;;;;;5118620;28;20050;-79
2023/03/11 04:34:14;;;;;;;5.88;1.92;;;;;;;;;;5119081;27;20048;-78
2023/03/11 04:36:40;;;;;;;5.22;1.52;;;;;;;;;;5122684;28;20040;-78
2023/03/11 04:39:09;;;;;;;2.70;1.63;;;;;;;;;;5121865;28;20051;-78
2023/03/11 04:41:40;;;;;;;5.53;1.67;;;;;;;;;;5122955;28;20052;-78
2023/03/11 04:44:09;;;;;;;3.53;1.67;;;;;;;;;;5122543;28;20058;-78
2023/03/11 04:46:36;;;;;;;9.20;2.03;;;;;;;;;;5122063;28;20048;-78
2023/03/11 04:49:05;;;;;;;7.07;2.10;;;;;;;;;;5122350;28;20574;-78
2023/03/11 04:51:31;;;;;;;2.92;1.25;;;;;;;;;;5122866;27;20063;-78
2023/03/11 04:53:57;;;;;;;7.50;1.85;;;;;;;;;;5123029;27;20048;-77
2023/03/11 04:56:26;;;;;;;5.07;1.40;;;;;;;;;;5122216;27;20052;-78
2023/03/11 04:58:53;;;;;;;4.20;1.48;;;;;;;;;;5121720;28;20056;-78
2023/03/11 05:01:21;;;;;;;6.15;1.70;;;;;;;;;;5122427;28;20072;-79
2023/03/11 05:03:49;;;;;;;6.10;1.70;;;;;;;;;;5122304;28;20508;-80
2023/03/11 05:06:16;;;;;;;3.50;1.30;;;;;;;;;;5121990;28;20071;-80
2023/03/11 05:08:42;;;;;;;7.28;1.70;;;;;;;;;;5124146;27;20044;-80
2023/03/11 05:11:09;;;;;;;2.33;1.63;;;;;;;;;;5122123;28;20052;-80
2023/03/11 05:13:36;;;;;;;5.53;1.90;;;;;;;;;;5121637;27;20044;-80
2023/03/11 05:16:03;;;;;;;5.20;1.90;;;;;;;;;;5121941;27;20056;-80
2023/03/11 05:18:31;;;;;;;5.82;1.73;;;;;;;;;;5122529;28;20571;-80
2023/03/11 05:20:58;;;;;;;3.35;1.50;;;;;;;;;;5121158;27;20726;-80
2023/03/11 05:23:28;;;;;;;10.73;2.03;;;;;;;;;;5139320;27;20105;-79
2023/03/11 05:25:55;;;;;;;5.30;1.63;;;;;;;;;;5121804;28;20052;-79
2023/03/11 05:28:21;;;;;;;1.98;1.75;;;;;;;;;;5121242;27;20052;-78
2023/03/11 05:30:51;;;;;;;3.42;1.50;;;;;;;;;;5123323;28;20052;-78
2023/03/11 05:33:18;;;;;;;6.13;1.73;;;;;;;;;;5123115;27;20129;-78
2023/03/11 05:35:45;;;;;;;8.13;1.88;;;;;;;;;;5132979;27;20599;-78
2023/03/11 05:38:12;;;;;;;10.27;2.10;;;;;;;;;;5121825;28;20044;-78
2023/03/11 05:40:39;;;;;;;6.15;1.52;;;;;;;;;;5121896;28;20048;-78
2023/03/11 05:43:05;;;;;;;3.88;1.55;;;;;;;;;;5120926;28;20056;-78
2023/03/11 05:45:36;;;;;;;3.78;1.60;;;;;;;;;;5108362;28;20520;-78
2023/03/11 05:48:02;;;;;;;3.60;2.17;;;;;;;;;;5100686;28;20842;-78
2023/03/11 05:50:29;;;;;;;7.43;1.98;;;;;;;;;;5107961;28;20132;-78
2023/03/11 05:52:56;;;;;;;5.68;1.90;;;;;;;;;;5122866;28;20123;-77
2023/03/11 05:55:22;;;;;;;6.18;1.67;;;;;;;;;;5120507;28;20052;-77
2023/03/11 05:57:50;;;;;;;2.67;1.92;;;;;;;;;;5120989;27;20047;-78
2023/03/11 06:00:19;;;;;;;4.65;1.88;;;;;;;;;;5122878;27;20055;-77
2023/03/11 06:02:49;;;;;;;11.88;1.85;;;;;;;;;;5115534;28;20534;-77
2023/03/11 06:05:17;;;;;;;3.15;1.80;;;;;;;;;;5105835;28;20049;-77
2023/03/11 06:07:45;;;;;;;5.38;1.60;;;;;;;;;;5106231;28;20045;-77
2023/03/11 06:10:12;;;;;;;9.52;2.10;;;;;;;;;;5100120;28;20198;-77
2023/03/11 06:12:39;;;;;;;8.27;2.15;;;;;;;;;;5105107;28;20562;-77
2023/03/11 06:15:12;;;;;;;5.05;1.90;;;;;;;;;;5114728;27;20557;-77
2023/03/11 06:17:39;;;;;;;2.60;1.38;;;;;;;;;;5100025;28;20496;-77
2023/03/11 06:20:08;;;;;;;3.42;1.50;;;;;;;;;;5113795;28;20131;-77
2023/03/11 06:22:35;;;;;;;5.53;1.73;;;;;;;;;;5105479;28;20524;-79
2023/03/11 06:25:06;;;;;;;3.97;1.50;;;;;;;;;;5099770;28;20128;-77
2023/03/11 06:27:33;;;;;;;4.40;1.88;;;;;;;;;;5136818;27;20499;-78
2023/03/11 06:30:00;;;;;;;5.13;1.50;;;;;;;;;;5120695;28;20040;-77
2023/03/11 06:32:29;;;;;;;2.47;1.45;;;;;;;;;;5120404;28;20139;-77
2023/03/11 06:34:55;;;;;;;4.35;1.35;;;;;;;;;;5120813;28;20058;-77
2023/03/11 06:37:23;;;;;;;3.20;1.92;;;;;;;;;;5122000;28;20048;-78
2023/03/11 06:39:53;;;;;;;7.82;2.10;;;;;;;;;;5122495;27;20488;-77
2023/03/11 06:42:23;;;;;;;1.47;1.40;;;;;;;;;;5121247;28;20680;-77
2023/03/11 06:44:51;;;;;;;6.65;1.88;;;;;;;;;;5119744;28;20048;-77
2023/03/11 06:47:17;;;;;;;4.28;1.60;;;;;;;;;;5120595;28;20058;-77
2023/03/11 06:49:44;;;;;;;2.67;1.80;;;;;;;;;;5119389;27;20596;-77
2023/03/11 06:52:10;;;;;;;7.55;2.10;;;;;;;;;;5119973;28;20060;-74
2023/03/11 06:54:37;;;;;;;2.72;1.80;;;;;;;;;;5122226;28;20052;-78
2023/03/11 06:57:05;;;;;;;6.28;1.70;;;;;;;;;;5119906;27;20063;-77
2023/03/11 06:59:32;;;;;;;2.45;2.25;;;;;;;;;;5106101;27;20056;-78
2023/03/11 07:02:00;;;;;;;5.72;2.65;;;;;;;;;;5107489;28;20800;-78
2023/03/11 07:04:27;;;;;;;4.82;2.65;;;;;;;;;;5120053;27;20052;-77
2023/03/11 07:06:53;;;;;;;8.95;4.53;;;;;;;;;;5108078;28;20142;-78
2023/03/11 07:09:21;;;;;;;7.82;2.97;;;;;;;;;;5110843;27;20044;-78
2023/03/11 07:11:48;;;;;;;4.38;3.10;;;;;;;;;;5118575;28;20048;-78
2023/03/11 07:14:22;;;;;;;6.43;3.70;;;;;;;;;;5103944;28;20052;-78
2023/03/11 07:16:52;;;;;;;7.88;3.47;;;;;;;;;;5118136;28;20067;-78
2023/03/11 07:19:27;;;;;;;19.02;3.65;;;;;;;;;;5112476;28;20642;-78
2023/03/11 07:21:54;;;;;;;4.85;3.05;;;;;;;;;;5113347;28;20090;-78
2023/03/11 07:24:20;;;;;;;3.75;3.13;;;;;;;;;;5107528;28;20049;-78
2023/03/11 07:26:47;;;;;;;12.82;2.60;;;;;;;;;;5113360;27;20052;-75
2023/03/11 07:29:13;;;;;;;3.30;2.60;;;;;;;;;;5119404;28;20075;-78
2023/03/11 07:31:40;;;;;;;2.78;2.58;;;;;;;;;;5108517;27;20045;-77
2023/03/11 07:34:10;;;;;;;4.53;2.70;;;;;;;;;;5111101;28;20527;-78
2023/03/11 07:36:38;;;;;;;8.00;2.80;;;;;;;;;;5107478;28;20072;-78
2023/03/11 07:39:06;;;;;;;6.03;2.42;;;;;;;;;;5107512;28;20178;-78
2023/03/11 07:41:33;;;;;;;3.72;2.55;;;;;;;;;;5106154;28;20131;-78
2023/03/11 07:44:00;;;;;;;6.95;2.45;;;;;;;;;;5112663;28;21331;-78
2023/03/11 07:46:28;;;;;;;5.63;2.20;;;;;;;;;;5107446;28;20520;-78
2023/03/11 07:48:55;;;;;;;4.80;2.10;;;;;;;;;;5112866;27;20098;-78
2023/03/11 07:51:23;;;;;;;1.75;1.65;;;;;;;;;;5113750;27;20049;-78
2023/03/11 07:53:51;;;;;;;9.18;2.38;;;;;;;;;;5116920;27;20125;-78
2023/03/11 07:56:18;;;;;;;7.38;2.33;;;;;;;;;;5113190;28;20083;-78
2023/03/11 07:58:44;;;;;;;7.50;2.22;;;;;;;;;;5107968;28;20087;-78
2023/03/11 08:01:15;;;;;;;3.65;2.20;;;;;;;;;;5099928;28;20118;-79
2023/03/11 08:03:42;;;;;;;7.80;2.13;;;;;;;;;;5112791;27;20086;-78
2023/03/11 08:06:13;;;;;;;4.47;1.88;;;;;;;;;;5105559;27;20056;-78
2023/03/11 08:08:39;;;;;;;7.20;1.90;;;;;;;;;;5113087;27;20130;-78
2023/03/11 08:11:06;;;;;;;2.25;1.95;;;;;;;;;;5120367;28;20583;-79
2023/03/11 08:13:32;;;;;;;1.55;1.40;;;;;;;;;;5104899;28;20505;-78
2023/03/11 08:16:02;;;;;;;3.90;1.90;;;;;;;;;;5115358;28;20044;-78
2023/03/11 08:18:29;;;;;;;3.80;1.60;;;;;;;;;;5119692;27;20055;-78
2023/03/11 08:20:56;;;;;;;3.92;1.35;;;;;;;;;;5114291;28;20056;-79
2023/03/11 08:23:22;;;;;;;6.75;1.77;;;;;;;;;;5117414;27;20075;-78
2023/03/11 08:25:49;;;;;;;3.10;1.80;;;;;;;;;;5111730;27;20044;-78
2023/03/11 08:28:15;;;;;;;4.03;1.20;;;;;;;;;;5108670;28;20056;-78
2023/03/11 08:30:41;;;;;;;2.30;1.17;;;;;;;;;;5121930;28;20048;-78
2023/03/11 08:33:08;;;;;;;2.47;1.15;;;;;;;;;;5124351;27;20063;-81
2023/03/11 08:35:36;;;;;;;4.95;1.38;;;;;;;;;;5119684;27;20044;-79
2023/03/11 08:38:03;;;;;;;8.73;1.42;;;;;;;;;;5102697;28;20052;-78
2023/03/11 08:40:29;;;;;;;3.13;1.38;;;;;;;;;;5103759;28;20135;-80
2023/03/11 08:42:56;;;;;;;2.35;1.25;;;;;;;;;;5103428;28;20506;-79
2023/03/11 08:45:22;;;;;;;6.82;1.52;;;;;;;;;;5108601;28;20041;-78
2023/03/11 08:47:50;;;;;;;6.93;1.63;;;;;;;;;;5123845;27;20056;-76
2023/03/11 08:50:17;;;;;;;3.97;1.35;;;;;;;;;;5123853;28;20059;-77
2023/03/11 08:52:43;;;;;;;2.20;1.10;;;;;;;;;;5123445;27;20079;-76
2023/03/11 08:55:15;;;;;;;1.35;1.20;;;;;;;;;;5123680;28;20044;-78
2023/03/11 08:57:42;;;;;;;6.78;1.40;;;;;;;;;;5123772;27;20060;-78
2023/03/11 09:00:10;;;;;;;2.75;1.13;;;;;;;;;;5122829;27;20071;-77
2023/03/11 09:02:40;;;;;;;4.38;1.10;;;;;;;;;;5124016;27;20427;-78
2023/03/11 09:05:07;;;;;;;1.33;1.23;;;;;;;;;;5122803;27;20102;-79
2023/03/11 09:07:33;;;;;;;3.38;1.52;;;;;;;;;;5123630;27;20916;-79
2023/03/11 09:09:59;;;;;;;3.78;1.15;;;;;;;;;;5123331;27;20044;-77
2023/03/11 09:12:26;;;;;;;5.18;1.10;;;;;;;;;;5122936;28;20909;-77
2023/03/11 09:14:53;;;;;;;1.75;0.98;;;;;;;;;;5123268;27;20056;-79
2023/03/11 09:17:19;;;;;;;2.58;1.38;;;;;;;;;;5123803;27;20050;-80
2023/03/11 09:19:46;;;;;;;6.00;1.42;;;;;;;;;;5122844;27;20058;-78
2023/03/11 09:22:12;;;;;;;2.97;0.93;;;;;;;;;;5122875;27;20098;-78
2023/03/11 09:24:39;;;;;;;1.55;1.10;;;;;;;;;;5122153;27;20523;-78
2023/03/11 09:27:05;;;;;;;1.92;1.10;;;;;;;;;;5117736;28;20131;-78
2023/03/11 09:29:31;;;;;;;4.75;1.20;;;;;;;;;;5123465;28;20083;-78
2023/03/11 09:31:58;;;;;;;2.15;1.17;;;;;;;;;;5122712;27;20048;-78
2023/03/11 09:34:25;;;;;;;3.08;1.13;;;;;;;;;;5122706;28;20488;-78
2023/03/11 09:36:51;;;;;;;5.25;1.50;;;;;;;;;;5123064;27;20059;-78
2023/03/11 09:39:17;;;;;;;2.63;1.60;;;;;;;;;;5122477;27;20412;-78
2023/03/11 09:41:54;;;;;;;7.00;1.27;;;;;;;;;;5122561;27;20123;-77
2023/03/11 09:44:36;;;;;;;4.35;1.15;;;;;;;;;;5123163;27;20139;-77
2023/03/11 09:47:09;;;;;;;6.40;1.27;;;;;;;;;;5122571;27;20092;-77
2023/03/11 09:49:54;;;;;;;4.72;1.50;;;;;;;;;;5123201;27;20048;-77
2023/03/11 09:52:27;;;;;;;2.60;1.20;;;;;;;;;;5117126;28;20052;-79
2023/03/11 09:54:54;;;;;;;3.00;1.45;;;;;;;;;;5101557;28;20464;-77
2023/03/11 09:57:23;;;;;;;6.53;1.23;;;;;;;;;;5114933;28;20531;-78
2023/03/11 09:59:50;;;;;;;4.07;1.10;;;;;;;;;;5122846;27;20059;-76
2023/03/11 10:02:17;;;;;;;2.72;0.95;;;;;;;;;;5122383;27;20106;-78
2023/03/11 10:04:50;;;;;;;2.38;0.95;;;;;;;;;;5104319;27;20059;-77
2023/03/11 10:07:20;;;;;;;3.78;1.38;;;;;;;;;;5102330;28;20110;-77
2023/03/11 10:09:50;;;;;;;5.70;1.25;;;;;;;;;;5101214;28;20051;-77
2023/03/11 10:12:20;;;;;;;2.50;1.10;;;;;;;;;;5102450;28;20048;-77
2023/03/11 10:15:22;;;;;;;7.05;1.50;;;;;;;;;;5102331;28;20131;-77
2023/03/11 10:17:54;;;;;;;2.78;1.20;;;;;;;;;;5038872;28;20545;-77
2023/03/11 10:20:31;;;;;;;5.85;1.30;;;;;;;;;;5092555;28;20501;-77
2023/03/11 10:23:00;;;;;;;2.78;1.10;;;;;;;;;;5101510;28;20044;-76
2023/03/11 10:25:32;;;;;;;1.85;0.90;;;;;;;;;;5103991;28;20047;-74
2023/03/11 10:28:12;;;;;;;2.63;0.85;;;;;;;;;;5101459;28;20048;-75
2023/03/11 10:30:47;;;;;;;2.70;1.27;;;;;;;;;;5101245;28;20055;-75
2023/03/11 10:33:33;;;;;;;3.15;1.23;;;;;;;;;;5100205;28;20055;-76
2023/03/11 10:36:05;;;;;;;7.93;0.90;;;;;;;;;;5113467;28;20576;-77
2023/03/11 10:38:45;;;;;;;1.90;0.90;;;;;;;;;;5121177;27;20047;-77
2023/03/11 10:41:25;;;;;;;7.78;1.38;;;;;;;;;;5101386;28;20095;-78
2023/03/11 10:44:10;;;;;;;8.45;1.77;;;;;;;;;;5100639;28;20514;-77
2023/03/11 10:46:36;;;;;;;3.70;1.70;;;;;;;;;;5101858;28;20428;-78
2023/03/11 10:49:04;;;;;;;7.07;1.13;;;;;;;;;;5101069;28;20094;-78
2023/03/11 10:51:34;;;;;;;5.28;1.08;;;;;;;;;;5106621;28;20585;-77
2023/03/11 10:54:02;;;;;;;3.28;1.00;;;;;;;;;;5121905;27;20052;-78
2023/03/11 10:56:28;;;;;;;2.47;1.00;;;;;;;;;;5121354;27;20084;-78
2023/03/11 10:58:56;;;;;;;2.53;0.82;;;;;;;;;;5120992;28;20075;-79
2023/03/11 11:01:23;;;;;;;4.20;1.52;;;;;;;;;;5122070;27;20167;-79
2023/03/11 11:03:51;;;;;;;3.95;1.30;;;;;;;;;;5121633;27;20054;-79
2023/03/11 11:06:25;;;;;;;1.40;0.95;;;;;;;;;;5121371;27;20141;-78
2023/03/11 11:09:05;;;;;;;5.43;1.45;;;;;;;;;;5121798;27;20109;-79
2023/03/11 11:11:34;;;;;;;5.30;1.42;;;;;;;;;;5121215;27;20048;-78
2023/03/11 11:14:01;;;;;;;3.30;1.05;;;;;;;;;;5121535;27;20048;-79
2023/03/11 11:16:27;;;;;;;5.05;1.27;;;;;;;;;;5119767;27;20095;-78
2023/03/11 11:18:54;;;;;;;3.35;1.98;;;;;;;;;;5101317;28;20049;-77
2023/03/11 11:21:30;;;;;;;7.68;1.42;;;;;;;;;;5101636;28;20055;-78
2023/03/11 11:24:00;;;;;;;3.78;1.20;;;;;;;;;;5101076;28;20045;-77
2023/03/11 11:26:27;;;;;;;6.03;1.70;;;;;;;;;;5100668;28;20041;-77
2023/03/11 11:29:11;;;;;;;5.35;1.55;;;;;;;;;;5103675;28;20587;-77
2023/03/11 11:31:43;;;;;;;5.68;1.63;;;;;;;;;;5100272;28;20044;-78
2023/03/11 11:34:21;;;;;;;4.22;0.90;;;;;;;;;;5110369;28;20127;-78
2023/03/11 11:36:49;;;;;;;4.70;1.13;;;;;;;;;;5100619;28;20083;-77
2023/03/11 11:39:18;;;;;;;5.85;2.38;;;;;;;;;;5101193;28;20048;-77
2023/03/11 11:41:47;;;;;;;0.85;0.85;;;;;;;;;;5100394;28;20145;-77
2023/03/11 11:44:18;;;;;;;6.15;1.65;;;;;;;;;;5112940;27;20051;-78
2023/03/11 11:46:48;;;;;;;2.17;1.00;;;;;;;;;;5113355;27;20492;-77
2023/03/11 11:49:14;;;;;;;2.45;1.02;;;;;;;;;;5101231;28;20102;-77
2023/03/11 11:51:47;;;;;;;6.18;1.42;;;;;;;;;;5101292;28;20059;-78
2023/03/11 11:54:23;;;;;;;1.35;1.02;;;;;;;;;;5101195;28;20146;-77
2023/03/11 11:56:50;;;;;;;6.15;1.55;;;;;;;;;;5104678;28;20056;-78
2023/03/11 11:59:21;;;;;;;5.22;1.30;;;;;;;;;;5117839;27;20052;-78
2023/03/11 12:02:08;;;;;;;1.45;0.90;;;;;;;;;;5114637;28;20161;-79
2023/03/11 12:04:55;;;;;;;4.63;1.20;;;;;;;;;;5106051;28;20074;-78
2023/03/11 12:07:38;;;;;;;3.85;1.33;;;;;;;;;;5111448;28;20056;-78
2023/03/11 12:10:10;;;;;;;3.13;1.15;;;;;;;;;;5108891;28;20055;-78
2023/03/11 12:12:52;;;;;;;10.20;1.63;;;;;;;;;;5115775;28;20193;-77
2023/03/11 12:15:20;;;;;;;3.22;0.95;;;;;;;;;;5117299;28;20121;-77
2023/03/11 12:17:49;;;;;;;7.05;1.30;;;;;;;;;;5118797;27;20052;-77
2023/03/11 12:20:19;;;;;;;4.43;1.50;;;;;;;;;;5119081;27;20072;-77
2023/03/11 12:23:05;;;;;;;5.45;2.35;;;;;;;;;;5118683;27;20047;-78
2023/03/11 12:25:40;;;;;;;1.95;1.38;;;;;;;;;;5114241;28;20076;-77
2023/03/11 12:28:22;;;;;;;4.93;1.00;;;;;;;;;;5114761;28;20131;-78
2023/03/11 12:30:53;;;;;;;4.90;1.35;;;;;;;;;;5116735;27;20101;-77
2023/03/11 12:33:36;;;;;;;6.95;1.67;;;;;;;;;;5117765;27;20052;-75
2023/03/11 12:36:04;;;;;;;2.35;1.25;;;;;;;;;;5113662;28;20127;-76
2023/03/11 12:38:39;;;;;;;8.57;1.10;;;;;;;;;;5116161;27;20062;-77
2023/03/11 12:41:14;;;;;;;5.13;1.58;;;;;;;;;;5111221;27;20086;-77
2023/03/11 12:43:41;;;;;;;4.70;1.58;;;;;;;;;;5111977;28;20094;-77
2023/03/11 12:46:08;;;;;;;3.10;0.95;;;;;;;;;;5111206;27;20535;-76
2023/03/11 12:48:49;;;;;;;2.08;1.05;;;;;;;;;;5118035;28;20052;-76
2023/03/11 12:51:30;;;;;;;2.95;1.08;;;;;;;;;;5110264;28;20052;-76
2023/03/11 12:53:56;;;;;;;3.42;1.30;;;;;;;;;;5115117;28;20052;-77
2023/03/11 12:56:43;;;;;;;9.93;1.15;;;;;;;;;;5119080;27;20040;-76
2023/03/11 12:59:13;;;;;;;1.70;1.10;;;;;;;;;;5121283;28;20131;-75
2023/03/11 13:01:49;;;;;;;5.15;1.02;;;;;;;;;;5117061;27;20127;-75
2023/03/11 13:04:35;;;;;;;10.30;1.40;;;;;;;;;;5122069;28;20052;-76
2023/03/11 13:07:15;;;;;;;5.90;1.40;;;;;;;;;;5120370;28;20119;-75
2023/03/11 13:09:41;;;;;;;4.65;1.02;;;;;;;;;;5122249;28;20040;-76
2023/03/11 13:12:26;;;;;;;1.73;1.27;;;;;;;;;;5112896;27;20105;-75
2023/03/11 13:15:13;;;;;;;2.75;1.40;;;;;;;;;;5119490;28;20044;-78
2023/03/11 13:17:41;;;;;;;4.93;1.40;;;;;;;;;;5103105;28;20052;-75
2023/03/11 13:20:27;;;;;;;2.67;1.08;;;;;;;;;;5115033;27;20044;-77
2023/03/11 13:22:54;;;;;;;3.47;1.00;;;;;;;;;;5109817;28;20542;-79
2023/03/11 13:25:31;;;;;;;3.35;1.13;;;;;;;;;;5101966;28;20080;-79
2023/03/11 13:28:09;;;;;;;7.72;1.23;;;;;;;;;;5117222;28;20056;-79
2023/03/11 13:30:38;;;;;;;5.03;1.30;;;;;;;;;;5112706;27;20131;-78
2023/03/11 13:33:23;;;;;;;3.25;1.30;;;;;;;;;;5102614;28;20053;-78
2023/03/11 13:35:55;;;;;;;9.43;1.35;;;;;;;;;;5114939;28;20091;-78
2023/03/11 13:38:38;;;;;;;5.13;1.33;;;;;;;;;;5122202;27;20063;-78
2023/03/11 13:41:15;;;;;;;1.95;1.05;;;;;;;;;;5114987;28;20727;-78
2023/03/11 13:43:43;;;;;;;3.13;0.98;;;;;;;;;;5109115;28;20060;-77
2023/03/11 13:46:18;;;;;;;1.90;1.00;;;;;;;;;;5114497;28;20049;-78
2023/03/11 13:48:46;;;;;;;1.90;1.08;;;;;;;;;;5109381;27;20080;-77
2023/03/11 13:51:19;;;;;;;4.55;1.00;;;;;;;;;;5108879;27;20048;-78
2023/03/11 13:53:51;;;;;;;2.17;1.25;;;;;;;;;;5111085;27;20051;-78
2023/03/11 13:56:26;;;;;;;9.90;1.45;;;;;;;;;;5107265;27;20053;-78
2023/03/11 13:58:53;;;;;;;2.70;1.13;;;;;;;;;;5115070;27;20129;-78
2023/03/11 14:01:20;;;;;;;5.75;1.25;;;;;;;;;;5105473;27;20171;-78
2023/03/11 14:03:46;;;;;;;6.45;1.33;;;;;;;;;;5103449;28;20090;-78
2023/03/11 14:06:19;;;;;;;1.55;1.10;;;;;;;;;;5108345;27;20504;-78
2023/03/11 14:08:53;;;;;;;12.57;1.52;;;;;;;;;;5105509;28;20048;-76
2023/03/11 14:11:25;;;;;;;3.90;1.25;;;;;;;;;;5115416;27;20587;-78
2023/03/11 14:13:52;;;;;;;4.60;0.90;;;;;;;;;;5106137;28;20048;-78
2023/03/11 14:16:21;;;;;;;4.15;1.10;;;;;;;;;;5107766;27;20049;-78
2023/03/11 14:19:07;;;;;;;0.77;0.77;;;;;;;;;;5114783;27;20558;-76
2023/03/11 14:21:34;;;;;;;3.42;0.90;;;;;;;;;;5114244;27;20596;-76
2023/03/11 14:24:27;;;;;;;3.13;0.95;;;;;;;;;;5120858;27;20601;-78
2023/03/11 14:26:56;;;;;;;1.65;0.75;;;;;;;;;;5113248;27;20516;-79
2023/03/11 14:29:29;;;;;;;2.20;1.10;;;;;;;;;;5112181;28;20057;-79
2023/03/11 14:31:56;;;;;;;1.13;1.00;;;;;;;;;;5118002;28;20044;-79
2023/03/11 14:34:24;;;;;;;2.15;1.33;;;;;;;;;;5111658;28;20499;-79
2023/03/11 14:36:56;;;;;;;1.58;1.00;;;;;;;;;;5114819;27;20044;-79
2023/03/11 14:39:22;;;;;;;2.50;0.90;;;;;;;;;;5113549;28;20062;-78
2023/03/11 14:41:50;;;;;;;0.70;0.70;;;;;;;;;;5112777;27;20040;-78
2023/03/11 14:44:17;;;;;;;1.65;0.80;;;;;;;;;;5119573;27;20052;-78
2023/03/11 14:46:44;;;;;;;0.80;0.80;;;;;;;;;;5115387;27;20152;-79
2023/03/11 14:49:16;;;;;;;1.20;0.90;;;;;;;;;;5117943;27;20048;-78
2023/03/11 14:51:43;;;;;;;1.45;0.80;;;;;;;;;;5116496;27;20052;-78
2023/03/11 14:54:16;;;;;;;2.67;1.00;;;;;;;;;;5115016;27;20044;-78
2023/03/11 14:56:46;;;;;;;0.82;0.82;;;;;;;;;;5110240;28;20059;-78
2023/03/11 14:59:17;;;;;;;2.70;1.05;;;;;;;;;;5119782;27;20048;-78